Time;durP1;ratioP1;P1;durP2;ratioP2;P2;SDS_P1;SDS_P2;PMS_P1;PMS_P2;Temp;Humidity;BMP_temperature;BMP_pressure;BME280_temperature;BME280_humidity;BME280_pressure;Samples;Min_cycle;Max_cycle;Signal;HPM_P1;HPM_P2
2023/11/07 00:01:29;;;;;;;1.58;0.40;;;;;;;8.80;100.00;97679.38;15281446;19;20033;-49
2023/11/07 00:06:53;;;;;;;1.50;0.40;;;;;;;8.94;100.00;97688.59;15273186;19;20425;-47
2023/11/07 00:12:18;;;;;;;2.22;0.63;;;;;;;8.98;100.00;97686.41;15280975;19;20498;-45
2023/11/07 00:17:53;;;;;;;0.85;0.40;;;;;;;8.90;100.00;97696.16;15274302;19;20035;-48
2023/11/07 00:23:19;;;;;;;0.90;0.30;;;;;;;8.79;100.00;97694.66;15273365;19;20081;-49
2023/11/07 00:34:27;;;;;;;0.82;0.32;;;;;;;8.80;100.00;97703.53;15273731;19;20026;-48
2023/11/07 00:39:53;;;;;;;1.55;0.47;;;;;;;8.83;100.00;97700.53;15280950;19;20430;-47
2023/11/07 00:45:17;;;;;;;1.17;0.35;;;;;;;8.88;100.00;97705.38;15272743;19;20022;-45
2023/11/07 00:50:46;;;;;;;0.60;0.30;;;;;;;8.93;100.00;97709.25;15275871;19;20023;-48
2023/11/07 00:56:11;;;;;;;2.17;0.40;;;;;;;9.01;100.00;97710.25;15268616;19;20029;-47
2023/11/07 01:01:38;;;;;;;0.68;0.30;;;;;;;9.06;100.00;97724.03;15276321;19;20024;-47
2023/11/07 01:07:05;;;;;;;1.38;0.60;;;;;;;9.12;100.00;97712.56;15272200;19;20025;-47
2023/11/07 01:12:30;;;;;;;1.05;0.30;;;;;;;9.10;100.00;97722.69;15275710;19;20361;-49
2023/11/07 01:18:03;;;;;;;4.07;0.30;;;;;;;9.13;100.00;97718.81;15272136;19;20014;-46
2023/11/07 01:23:31;;;;;;;1.95;0.45;;;;;;;9.21;100.00;97716.97;15274037;19;20019;-48
2023/11/07 01:28:56;;;;;;;1.05;0.30;;;;;;;9.25;100.00;97731.72;15270798;19;20627;-48
2023/11/07 01:34:21;;;;;;;1.05;0.40;;;;;;;9.20;100.00;97731.41;15274765;19;20031;-49
2023/11/07 01:39:48;;;;;;;0.55;0.20;;;;;;;9.13;100.00;97751.88;15276462;19;20565;-48
2023/11/07 01:45:14;;;;;;;0.45;0.20;;;;;;;9.16;100.00;97743.50;15270581;19;20027;-47
2023/11/07 01:50:40;;;;;;;1.70;0.40;;;;;;;9.18;100.00;97746.00;15271992;19;20078;-46
2023/11/07 01:56:09;;;;;;;0.22;0.20;;;;;;;9.25;100.00;97747.03;15267853;19;20035;-47
2023/11/07 02:01:34;;;;;;;0.65;0.40;;;;;;;9.28;100.00;97746.69;15270247;19;20014;-48
2023/11/07 02:07:00;;;;;;;2.25;0.50;;;;;;;9.34;100.00;97747.84;15271578;19;20018;-50
2023/11/07 02:12:27;;;;;;;1.15;0.38;;;;;;;9.30;100.00;97758.09;15268899;19;20021;-45
2023/11/07 02:17:59;;;;;;;1.10;0.38;;;;;;;9.27;100.00;97762.97;15267282;19;20485;-46
2023/11/07 02:23:32;;;;;;;1.73;0.40;;;;;;;9.24;100.00;97759.59;15268708;19;20061;-48
2023/11/07 02:28:57;;;;;;;1.05;0.35;;;;;;;9.20;100.00;97752.03;15265683;19;20101;-46
2023/11/07 02:34:21;;;;;;;2.42;0.47;;;;;;;9.19;100.00;97759.28;15263825;19;20029;-47
2023/11/07 02:39:49;;;;;;;0.75;0.38;;;;;;;9.19;100.00;97761.97;15273309;19;20013;-47
2023/11/07 02:45:16;;;;;;;2.92;0.50;;;;;;;9.14;100.00;97758.94;15269092;19;20461;-49
2023/11/07 02:50:41;;;;;;;3.03;0.63;;;;;;;9.12;100.00;97755.56;15269541;19;20018;-49
2023/11/07 02:56:10;;;;;;;1.33;0.40;;;;;;;9.10;100.00;97754.94;15267626;19;20476;-46
2023/11/07 03:01:36;;;;;;;0.88;0.50;;;;;;;9.07;100.00;97766.00;15268039;19;20023;-47
2023/11/07 03:07:03;;;;;;;1.23;0.40;;;;;;;8.99;100.00;97772.22;15261769;19;20123;-47
2023/11/07 03:12:32;;;;;;;2.08;0.50;;;;;;;8.92;100.00;97776.59;15264814;19;20014;-46
2023/11/07 03:18:03;;;;;;;2.03;0.43;;;;;;;8.84;100.00;97773.88;15267377;19;20019;-45
2023/11/07 03:23:28;;;;;;;1.80;0.40;;;;;;;8.79;100.00;97777.91;15267300;19;21641;-47
2023/11/07 03:28:55;;;;;;;1.17;0.50;;;;;;;8.77;100.00;97781.75;15268536;19;20022;-45
2023/11/07 03:34:20;;;;;;;1.23;0.47;;;;;;;8.75;100.00;97778.41;15267378;19;20422;-45
2023/11/07 03:39:45;;;;;;;0.98;0.50;;;;;;;8.72;100.00;97782.25;15262043;19;20886;-48
2023/11/07 03:45:13;;;;;;;2.65;0.57;;;;;;;8.73;100.00;97793.84;15267340;19;20729;-45
2023/11/07 03:50:37;;;;;;;1.88;0.50;;;;;;;8.73;100.00;97793.84;15264176;19;20031;-48
2023/11/07 03:56:02;;;;;;;1.65;0.50;;;;;;;8.69;100.00;97790.66;15265725;19;20024;-47
2023/11/07 04:01:29;;;;;;;1.70;0.47;;;;;;;8.67;100.00;97794.50;15269688;19;20014;-46
2023/11/07 04:06:54;;;;;;;1.55;0.40;;;;;;;8.61;100.00;97794.16;15261331;19;20736;-50
2023/11/07 04:12:18;;;;;;;1.35;0.50;;;;;;;8.59;100.00;97793.47;15261982;19;20003;-48
2023/11/07 04:17:53;;;;;;;1.85;0.60;;;;;;;8.59;100.00;97792.63;15262532;19;20011;-48
2023/11/07 04:23:19;;;;;;;0.55;0.40;;;;;;;8.61;100.00;97798.66;15280192;19;20017;-46
2023/11/07 04:28:44;;;;;;;1.55;0.57;;;;;;;8.63;100.00;97786.78;15282936;19;20036;-48
2023/11/07 04:34:11;;;;;;;2.83;0.40;;;;;;;8.66;100.00;97792.81;15278402;19;20014;-48
2023/11/07 04:39:36;;;;;;;0.45;0.40;;;;;;;8.70;100.00;97799.53;15276178;19;20437;-53
2023/11/07 04:45:02;;;;;;;2.40;0.60;;;;;;;8.74;100.00;97795.53;15275979;19;20031;-48
2023/11/07 04:50:29;;;;;;;1.83;0.57;;;;;;;8.77;100.00;97800.53;15279375;19;20597;-49
2023/11/07 04:55:55;;;;;;;1.02;0.40;;;;;;;8.80;100.00;97800.22;15278127;19;20039;-50
2023/11/07 05:01:21;;;;;;;2.75;0.50;;;;;;;8.84;100.00;97801.59;15276763;19;20007;-47
2023/11/07 05:06:49;;;;;;;1.08;0.50;;;;;;;8.88;100.00;97799.41;15271807;19;20015;-48
2023/11/07 05:12:15;;;;;;;1.48;0.68;;;;;;;8.91;100.00;97813.34;15268454;19;20805;-48
2023/11/07 05:17:35;;;;;;;1.40;0.60;;;;;;;8.91;100.00;97810.66;15268591;19;20384;-48
2023/11/07 05:23:02;;;;;;;1.40;0.50;;;;;;;8.87;100.00;97808.47;15277099;19;20328;-47
2023/11/07 05:28:27;;;;;;;1.20;0.47;;;;;;;8.82;100.00;97813.50;15278050;19;20006;-46
2023/11/07 05:33:52;;;;;;;2.05;0.80;;;;;;;8.83;100.00;97812.47;15274041;19;20043;-47
2023/11/07 05:39:19;;;;;;;2.65;0.70;;;;;;;8.88;100.00;97818.22;15278769;19;20066;-46
2023/11/07 05:44:44;;;;;;;2.65;0.63;;;;;;;8.93;100.00;97813.19;15269515;19;20022;-47
2023/11/07 05:50:08;;;;;;;1.48;0.65;;;;;;;8.96;100.00;97801.25;15276811;19;20275;-51
2023/11/07 05:55:37;;;;;;;3.20;0.70;;;;;;;8.96;100.00;97812.84;15275296;19;20011;-50
2023/11/07 06:01:01;;;;;;;4.20;0.85;;;;;;;8.95;100.00;97811.16;15274859;19;20018;-47
2023/11/07 06:06:27;;;;;;;3.92;1.00;;;;;;;8.97;100.00;97811.84;15271188;19;20021;-48
2023/11/07 06:11:54;;;;;;;1.50;0.60;;;;;;;8.98;100.00;97823.44;15273772;19;20476;-47
2023/11/07 06:17:25;;;;;;;1.63;0.70;;;;;;;9.00;100.00;97834.84;15265689;19;20074;-46
2023/11/07 06:22:50;;;;;;;1.43;0.47;;;;;;;9.00;100.00;97834.84;15274696;19;20642;-45
2023/11/07 06:28:18;;;;;;;1.70;0.63;;;;;;;9.02;100.00;97835.50;15271367;19;20378;-47
2023/11/07 06:33:44;;;;;;;2.00;0.60;;;;;;;9.04;100.00;97850.47;15270443;19;20035;-46
2023/11/07 06:39:10;;;;;;;1.67;0.70;;;;;;;9.04;100.00;97860.38;15271732;19;20002;-47
2023/11/07 06:44:38;;;;;;;2.65;0.70;;;;;;;9.04;100.00;97871.13;15268125;19;20018;-51
2023/11/07 06:50:05;;;;;;;2.25;0.73;;;;;;;9.03;100.00;97872.13;15268914;19;20363;-48
2023/11/07 06:55:32;;;;;;;1.85;0.60;;;;;;;9.05;100.00;97878.19;15269434;19;20070;-48
2023/11/07 07:01:00;;;;;;;2.85;0.80;;;;;;;9.06;100.00;97890.63;15273876;19;20024;-46
2023/11/07 07:06:25;;;;;;;2.83;0.70;;;;;;;9.07;100.00;97881.53;15268528;19;20253;-48
2023/11/07 07:11:51;;;;;;;2.97;0.65;;;;;;;9.07;100.00;97887.75;15269647;19;20013;-48
2023/11/07 07:17:25;;;;;;;1.17;0.50;;;;;;;9.11;100.00;97885.59;15267434;19;20022;-49
2023/11/07 07:22:50;;;;;;;3.15;0.65;;;;;;;9.14;100.00;97890.63;15265302;19;20019;-51
2023/11/07 07:28:20;;;;;;;1.65;0.70;;;;;;;9.20;100.00;97902.56;15269641;19;20015;-46
2023/11/07 07:33:48;;;;;;;2.15;0.50;;;;;;;9.29;100.00;97900.72;15265559;19;20018;-46
2023/11/07 07:39:27;;;;;;;1.08;0.50;;;;;;;9.40;100.00;97901.25;15269722;19;20053;-47
2023/11/07 07:44:56;;;;;;;4.78;0.70;;;;;;;9.52;100.00;97898.25;15264555;19;20415;-51
2023/11/07 07:50:23;;;;;;;1.40;0.57;;;;;;;9.53;100.00;97895.38;15265774;19;20014;-48
2023/11/07 07:55:50;;;;;;;3.53;0.40;;;;;;;9.44;100.00;97895.53;15266377;19;20013;-47
2023/11/07 08:01:18;;;;;;;1.17;0.60;;;;;;;9.44;100.00;97899.06;15285277;19;20070;-46
2023/11/07 08:06:47;;;;;;;1.88;0.60;;;;;;;9.43;100.00;97902.75;15276207;19;20029;-49
2023/11/07 08:12:12;;;;;;;2.05;0.45;;;;;;;9.36;100.00;97896.34;15279413;19;20006;-46
2023/11/07 08:17:37;;;;;;;1.30;0.50;;;;;;;9.35;100.00;97902.75;15276749;19;20019;-47
2023/11/07 08:23:05;;;;;;;3.25;0.50;;;;;;;9.43;100.00;97912.66;15282489;19;20018;-49
2023/11/07 08:28:30;;;;;;;1.13;0.45;;;;;;;9.63;100.00;97897.03;15280654;19;20007;-48
2023/11/07 08:33:56;;;;;;;1.20;0.40;;;;;;;9.78;100.00;97902.59;15274734;19;20476;-49
2023/11/07 08:39:28;;;;;;;0.65;0.40;;;;;;;9.74;100.00;97894.03;15284287;19;20014;-49
2023/11/07 08:44:53;;;;;;;0.70;0.38;;;;;;;9.71;100.00;97884.44;15275376;19;20013;-46
2023/11/07 08:50:18;;;;;;;1.40;0.50;;;;;;;9.73;100.00;97878.88;15278002;19;20044;-46
2023/11/07 08:55:49;;;;;;;1.55;0.40;;;;;;;9.74;100.00;97872.50;15272003;19;20090;-49
2023/11/07 09:01:14;;;;;;;1.40;0.50;;;;;;;9.95;100.00;97879.19;15271886;19;20014;-46
2023/11/07 09:06:39;;;;;;;0.80;0.50;;;;;;;10.09;100.00;97880.38;15270668;19;20017;-48
2023/11/07 09:12:10;;;;;;;1.55;0.60;;;;;;;10.19;100.00;97886.38;15276383;19;20003;-45
2023/11/07 09:17:34;;;;;;;1.58;0.75;;;;;;;10.11;100.00;97894.50;15272412;19;20070;-47
2023/11/07 09:22:59;;;;;;;2.67;0.70;;;;;;;10.09;100.00;97883.88;15278881;19;20006;-47
2023/11/07 09:28:26;;;;;;;1.50;0.52;;;;;;;10.05;100.00;97896.03;15277283;19;20063;-48
2023/11/07 09:33:52;;;;;;;1.00;0.43;;;;;;;10.07;100.00;97893.16;15268166;19;20007;-49
2023/11/07 09:39:16;;;;;;;2.33;0.40;;;;;;;10.16;100.00;97902.88;15278032;19;20097;-49
2023/11/07 09:44:45;;;;;;;2.72;0.55;;;;;;;10.17;100.00;97899.19;15273238;19;20441;-50
2023/11/07 09:50:10;;;;;;;3.22;0.60;;;;;;;10.17;100.00;97907.25;15275572;19;20036;-46
2023/11/07 09:55:37;;;;;;;2.35;0.50;;;;;;;10.25;100.00;97911.78;15271577;19;20018;-47
2023/11/07 10:01:07;;;;;;;3.38;0.60;;;;;;;10.31;100.00;97905.69;15274522;19;20380;-48
2023/11/07 10:06:32;;;;;;;1.48;0.40;;;;;;;10.28;100.00;97911.44;15265907;19;20112;-46
2023/11/07 10:11:58;;;;;;;1.30;0.50;;;;;;;10.30;100.00;97918.34;15273722;19;20097;-48
2023/11/07 10:17:26;;;;;;;1.13;0.50;;;;;;;10.38;100.00;97905.88;15268725;19;20018;-48
2023/11/07 10:22:54;;;;;;;1.13;0.50;;;;;;;10.42;100.00;97908.06;15272721;19;20018;-50
2023/11/07 10:28:21;;;;;;;1.02;0.40;;;;;;;10.43;100.00;97909.72;15272772;19;20416;-48
2023/11/07 10:33:48;;;;;;;1.02;0.40;;;;;;;10.43;100.00;97907.03;15268145;19;20023;-48
2023/11/07 10:39:17;;;;;;;0.95;0.30;;;;;;;10.46;100.00;97906.69;15271843;19;20029;-47
2023/11/07 10:44:42;;;;;;;0.68;0.30;;;;;;;10.50;100.00;97907.19;15268537;19;20018;-48
2023/11/07 10:50:17;;;;;;;1.67;0.30;;;;;;;10.54;100.00;97904.97;15271946;19;20384;-48
2023/11/07 10:55:41;;;;;;;2.30;0.32;;;;;;;10.54;100.00;97895.06;15265053;19;20018;-49
2023/11/07 11:01:07;;;;;;;0.40;0.30;;;;;;;10.52;100.00;97890.88;15271301;19;20411;-50
2023/11/07 11:06:36;;;;;;;0.68;0.20;;;;;;;10.47;100.00;97896.75;15262832;19;20109;-49
2023/11/07 11:12:02;;;;;;;0.50;0.20;;;;;;;10.46;100.00;97901.31;15267133;19;20015;-50
2023/11/07 11:17:37;;;;;;;0.60;0.28;;;;;;;10.43;100.00;97888.19;15261364;19;20020;-50
2023/11/07 11:23:16;;;;;;;0.25;0.20;;;;;;;10.39;100.00;97889.56;15269923;19;20010;-51
2023/11/07 11:28:47;;;;;;;0.30;0.20;;;;;;;10.43;100.00;97888.19;15271045;19;20090;-51
2023/11/07 11:34:25;;;;;;;0.50;0.20;;;;;;;10.58;100.00;97882.94;15266166;19;20025;-52
2023/11/07 11:39:56;;;;;;;0.52;0.20;;;;;;;10.66;100.00;97873.97;15266935;19;20030;-52
2023/11/07 11:45:28;;;;;;;0.63;0.30;;;;;;;10.63;100.00;97871.63;15260974;19;20019;-47
2023/11/07 11:51:33;;;;;;;0.77;0.60;;;;;;;10.60;100.00;97877.38;15267278;19;20021;-49
2023/11/07 11:57:10;;;;;;;2.60;0.55;;;;;;;10.57;100.00;97883.09;15264492;19;20010;-49
2023/11/07 12:02:42;;;;;;;0.88;0.80;;;;;;;10.48;100.00;97863.44;15266516;19;20025;-49
2023/11/07 12:08:38;;;;;;;2.30;1.45;;;;;;;10.45;100.00;97869.19;15261443;19;20015;-47
2023/11/07 12:14:12;;;;;;;1.45;1.27;;;;;;;10.43;100.00;97876.59;15257725;19;20357;-49
2023/11/07 12:19:44;;;;;;;1.02;0.93;;;;;;;10.52;100.00;97869.31;15262934;19;20019;-52
2023/11/07 12:25:11;;;;;;;2.35;1.23;;;;;;;10.68;100.00;97871.09;15262427;19;20358;-54
2023/11/07 12:30:40;;;;;;;1.77;0.40;;;;;;;10.76;100.00;97866.50;15267694;19;20082;-47
2023/11/07 12:36:06;;;;;;;0.60;0.50;;;;;;;10.88;100.00;97876.88;15260346;19;20015;-48
2023/11/07 12:41:33;;;;;;;0.80;0.20;;;;;;;10.90;100.00;97867.63;15268182;19;20716;-47
2023/11/07 12:47:03;;;;;;;1.15;0.50;;;;;;;10.83;100.00;97865.81;15270170;19;20082;-48
2023/11/07 12:52:30;;;;;;;0.40;0.30;;;;;;;10.68;100.00;97853.06;15280262;19;20013;-48
2023/11/07 12:57:56;;;;;;;1.38;0.60;;;;;;;10.67;100.00;97855.97;15278729;19;20014;-50
2023/11/07 13:03:28;;;;;;;0.52;0.38;;;;;;;10.84;100.00;97851.31;15279383;19;20568;-47
2023/11/07 13:09:02;;;;;;;1.30;0.50;;;;;;;10.86;100.00;97849.28;15278260;19;20100;-50
2023/11/07 13:14:27;;;;;;;2.40;0.50;;;;;;;10.94;100.00;97841.16;15273656;19;20017;-50
2023/11/07 13:20:06;;;;;;;0.65;0.40;;;;;;;10.95;100.00;97838.25;15261507;19;20015;-53
2023/11/07 13:25:32;;;;;;;0.30;0.20;;;;;;;10.88;100.00;97840.00;15272330;19;20010;-49
2023/11/07 13:30:56;;;;;;;1.13;0.30;;;;;;;10.89;100.00;97830.91;15277619;19;20025;-48
2023/11/07 13:36:24;;;;;;;0.93;0.50;;;;;;;11.05;100.00;97838.03;15272024;19;20029;-47
2023/11/07 13:41:49;;;;;;;1.55;0.40;;;;;;;11.01;100.00;97836.72;15278058;19;20018;-47
2023/11/07 13:47:14;;;;;;;0.45;0.20;;;;;;;10.84;100.00;97837.84;15271172;19;20514;-51
2023/11/07 13:52:41;;;;;;;2.17;0.70;;;;;;;10.74;100.00;97835.38;15271448;19;20019;-52
2023/11/07 13:58:06;;;;;;;0.40;0.40;;;;;;;10.69;100.00;97835.06;15272733;19;20025;-49
2023/11/07 14:03:30;;;;;;;0.95;0.50;;;;;;;10.64;100.00;97828.34;15275314;19;20014;-51
2023/11/07 14:08:58;;;;;;;0.60;0.60;;;;;;;10.66;100.00;97830.84;15270992;19;20014;-49
2023/11/07 14:14:17;;;;;;;0.38;0.32;;;;;;;10.73;100.00;97829.16;15269827;19;20018;-51
2023/11/07 14:19:50;;;;;;;0.73;0.45;;;;;;;10.77;100.00;97838.53;15268738;19;20573;-51
2023/11/07 14:25:17;;;;;;;1.88;0.38;;;;;;;10.71;100.00;97836.56;15268704;19;20542;-52
2023/11/07 14:30:44;;;;;;;0.50;0.15;;;;;;;10.66;100.00;97841.63;15273333;19;20022;-49
2023/11/07 14:36:10;;;;;;;1.02;0.90;;;;;;;10.58;100.00;97839.84;15264031;19;20029;-48
2023/11/07 14:41:39;;;;;;;0.52;0.30;;;;;;;10.49;100.00;97838.19;15264331;19;20010;-45
2023/11/07 14:47:06;;;;;;;0.35;0.20;;;;;;;10.42;100.00;97846.13;15268138;19;20011;-45
2023/11/07 14:52:30;;;;;;;0.17;0.10;;;;;;;10.36;100.00;97841.41;15262246;19;20015;-45
2023/11/07 14:57:57;;;;;;;0.25;0.20;;;;;;;10.30;100.00;97851.03;15269419;19;20027;-45
2023/11/07 15:03:23;;;;;;;0.32;0.13;;;;;;;10.26;100.00;97836.22;15268621;19;20018;-46
2023/11/07 15:08:48;;;;;;;0.28;0.20;;;;;;;10.22;100.00;97837.59;15268414;19;20078;-44
2023/11/07 15:14:15;;;;;;;0.28;0.22;;;;;;;10.17;100.00;97845.34;15266565;19;20029;-46
2023/11/07 15:19:40;;;;;;;0.47;0.30;;;;;;;10.15;100.00;97845.53;15269779;19;20012;-45
2023/11/07 15:25:05;;;;;;;0.28;0.20;;;;;;;10.09;100.00;97848.88;15260093;19;20013;-46
2023/11/07 15:30:34;;;;;;;0.47;0.10;;;;;;;10.07;100.00;97855.47;15261797;19;20309;-46
2023/11/07 15:36:00;;;;;;;0.25;0.20;;;;;;;10.02;100.00;97853.28;15266052;19;20483;-50
2023/11/07 15:41:29;;;;;;;0.20;0.20;;;;;;;9.98;100.00;97847.41;15269243;19;20038;-46
2023/11/07 15:46:56;;;;;;;0.40;0.30;;;;;;;9.96;100.00;97859.34;15257472;19;20018;-48
2023/11/07 15:52:21;;;;;;;0.40;0.17;;;;;;;9.91;100.00;97854.47;15262701;19;20026;-45
2023/11/07 15:57:46;;;;;;;0.17;0.10;;;;;;;9.79;100.00;97859.38;15246402;19;20021;-46
2023/11/07 16:03:14;;;;;;;0.35;0.20;;;;;;;9.67;100.00;97858.06;15265185;19;20090;-45
2023/11/07 16:08:39;;;;;;;0.30;0.30;;;;;;;9.56;100.00;97865.47;15264378;19;20022;-45
2023/11/07 16:14:05;;;;;;;0.30;0.30;;;;;;;9.47;100.00;97866.44;15262106;19;20041;-44
2023/11/07 16:19:34;;;;;;;0.30;0.30;;;;;;;9.37;100.00;97871.16;15275708;19;20093;-45
2023/11/07 16:24:53;;;;;;;3.83;3.13;;;;;;;9.27;100.00;97865.97;15274328;19;20034;-46
2023/11/07 16:30:18;;;;;;;5.80;4.18;;;;;;;9.20;100.00;97871.16;15274750;19;20022;-47
2023/11/07 16:35:46;;;;;;;7.40;3.10;;;;;;;9.13;100.00;97875.50;15273202;19;20058;-44
2023/11/07 16:41:12;;;;;;;2.67;2.00;;;;;;;9.05;100.00;97876.34;15280026;19;20375;-45
2023/11/07 16:46:38;;;;;;;0.80;0.70;;;;;;;8.96;100.00;97892.59;15275005;19;20046;-46
2023/11/07 16:52:06;;;;;;;2.10;1.90;;;;;;;8.92;100.00;97889.41;15278282;19;20025;-45
2023/11/07 16:57:31;;;;;;;5.45;3.47;;;;;;;8.94;100.00;97893.59;15277551;19;20025;-45
2023/11/07 17:02:56;;;;;;;1.67;1.55;;;;;;;8.94;100.00;97892.75;15271302;19;20010;-47
2023/11/07 17:08:24;;;;;;;2.30;2.10;;;;;;;8.90;100.00;97904.84;15274157;19;20102;-45
2023/11/07 17:13:49;;;;;;;2.20;2.00;;;;;;;8.87;100.00;97903.34;15273134;19;20024;-46
2023/11/07 17:19:15;;;;;;;1.48;1.38;;;;;;;8.84;100.00;97900.97;15278543;19;20014;-45
2023/11/07 17:24:42;;;;;;;1.20;1.10;;;;;;;8.82;100.00;97913.72;15267998;19;20035;-47
2023/11/07 17:30:09;;;;;;;1.20;1.02;;;;;;;8.83;100.00;97919.91;15275147;19;20015;-45
2023/11/07 17:35:34;;;;;;;1.05;1.00;;;;;;;8.83;100.00;97926.16;15264511;19;20043;-44
2023/11/07 17:41:02;;;;;;;1.10;1.00;;;;;;;8.86;100.00;97928.50;15277133;19;20381;-44
2023/11/07 17:46:34;;;;;;;4.45;2.90;;;;;;;8.83;100.00;97936.88;9684536;19;10001965;-48
2023/11/07 17:51:59;;;;;;;5.07;3.50;;;;;;;8.80;100.00;97934.53;15274595;19;20034;-44
2023/11/07 17:57:26;;;;;;;5.35;4.13;;;;;;;8.82;100.00;97934.38;15269585;19;20090;-45
2023/11/07 18:02:51;;;;;;;5.25;3.95;;;;;;;8.82;100.00;97929.00;15272035;19;20025;-44
2023/11/07 18:08:15;;;;;;;1.20;1.10;;;;;;;8.78;100.00;97931.16;15266627;19;20015;-45
2023/11/07 18:13:43;;;;;;;2.28;0.80;;;;;;;8.74;100.00;97927.94;15269741;19;20018;-44
2023/11/07 18:19:07;;;;;;;0.60;0.60;;;;;;;8.72;100.00;97940.69;15271283;19;20022;-45
2023/11/07 18:24:32;;;;;;;0.60;0.60;;;;;;;8.70;100.00;97928.44;15269447;19;20073;-45
2023/11/07 18:29:59;;;;;;;0.50;0.50;;;;;;;8.70;100.00;97920.38;15274775;19;20020;-45
2023/11/07 18:35:24;;;;;;;1.05;0.50;;;;;;;8.69;100.00;97932.97;15267366;19;20021;-45
2023/11/07 18:40:48;;;;;;;0.80;0.45;;;;;;;8.70;100.00;97939.19;15266507;19;20024;-44
2023/11/07 18:46:23;;;;;;;0.75;0.40;;;;;;;8.66;100.00;97957.47;15258169;19;20022;-44
2023/11/07 18:51:49;;;;;;;0.38;0.30;;;;;;;8.50;100.00;97955.53;15264655;19;20074;-45
2023/11/07 18:57:14;;;;;;;0.95;0.30;;;;;;;8.39;100.00;97963.84;15260207;19;20047;-45
2023/11/07 19:02:42;;;;;;;0.20;0.20;;;;;;;8.25;100.00;97973.28;15264990;19;20059;-44
2023/11/07 19:08:06;;;;;;;0.55;0.38;;;;;;;8.18;100.00;97978.44;15267511;19;20015;-45
2023/11/07 19:13:31;;;;;;;0.30;0.30;;;;;;;8.12;100.00;97971.03;15264273;19;20033;-44
2023/11/07 19:18:58;;;;;;;0.38;0.38;;;;;;;8.09;100.00;97966.84;15268922;19;20066;-45
2023/11/07 19:24:23;;;;;;;0.60;0.60;;;;;;;8.06;100.00;97961.78;15265329;19;20093;-44
2023/11/07 19:29:48;;;;;;;0.50;0.45;;;;;;;8.08;100.00;97972.34;15269847;19;20640;-46
2023/11/07 19:35:16;;;;;;;0.80;0.80;;;;;;;8.12;100.00;97976.41;15265098;19;20102;-45
2023/11/07 19:40:43;;;;;;;0.95;0.90;;;;;;;8.08;100.00;97973.19;15266869;19;20014;-44
2023/11/07 19:46:14;;;;;;;1.92;0.77;;;;;;;8.07;100.00;97978.69;15258777;19;20102;-44
2023/11/07 19:51:42;;;;;;;0.70;0.70;;;;;;;8.07;100.00;97981.38;15271630;19;20039;-42
2023/11/07 19:57:07;;;;;;;0.82;0.70;;;;;;;8.09;100.00;97992.81;15275927;19;20248;-42
2023/11/07 20:02:35;;;;;;;0.57;0.57;;;;;;;8.17;100.00;97987.53;15279545;19;20043;-45
2023/11/07 20:08:02;;;;;;;2.67;0.50;;;;;;;8.21;100.00;97983.50;15283643;19;20015;-41
2023/11/07 20:13:27;;;;;;;3.40;0.70;;;;;;;8.18;100.00;97989.19;15276982;19;20021;-43
2023/11/07 20:18:52;;;;;;;0.65;0.45;;;;;;;8.19;100.00;97990.88;15276088;19;20400;-42
2023/11/07 20:24:20;;;;;;;3.28;0.50;;;;;;;8.16;100.00;97996.56;15276790;19;20015;-46
2023/11/07 20:29:44;;;;;;;0.70;0.40;;;;;;;8.13;100.00;97991.50;15280757;19;20021;-42
2023/11/07 20:35:10;;;;;;;0.80;0.50;;;;;;;8.11;100.00;97993.50;15273321;19;20018;-41
2023/11/07 20:40:37;;;;;;;1.35;0.45;;;;;;;8.06;100.00;97995.78;15280157;19;20486;-44
2023/11/07 20:46:08;;;;;;;0.73;0.45;;;;;;;7.99;100.00;97996.44;15291239;19;20078;-82
2023/11/07 20:51:53;;;;;;;0.60;0.50;;;;;;;7.94;100.00;97998.72;15296868;19;20019;-82
2023/11/07 20:57:25;;;;;;;0.43;0.40;;;;;;;7.96;100.00;98003.94;15299126;19;20036;-81
2023/11/07 21:02:51;;;;;;;0.73;0.40;;;;;;;7.93;100.00;98004.25;15317135;19;20011;-82
2023/11/07 21:08:16;;;;;;;0.60;0.30;;;;;;;7.85;100.00;98002.34;15298846;19;20483;-83
2023/11/07 21:13:43;;;;;;;0.88;0.60;;;;;;;7.82;100.00;97994.63;15299603;19;20026;-82
2023/11/07 21:19:10;;;;;;;1.02;0.50;;;;;;;7.86;100.00;97995.97;15299812;19;20014;-83
2023/11/07 21:24:35;;;;;;;1.58;0.52;;;;;;;7.85;100.00;97986.25;15295763;19;20033;-82
2023/11/07 21:30:05;;;;;;;0.82;0.57;;;;;;;7.85;100.00;98003.19;15302051;19;20014;-84
2023/11/07 21:35:30;;;;;;;0.88;0.60;;;;;;;8.08;100.00;98001.84;15298012;19;20014;-83
2023/11/07 21:40:56;;;;;;;1.40;0.40;;;;;;;8.14;100.00;98004.75;15300834;19;20029;-84
2023/11/07 21:46:31;;;;;;;1.08;0.70;;;;;;;8.14;100.00;98009.28;15298592;19;20007;-84
2023/11/07 21:51:56;;;;;;;2.30;0.70;;;;;;;8.24;100.00;98009.19;15299166;19;20515;-84
2023/11/07 21:57:21;;;;;;;1.00;0.60;;;;;;;8.24;100.00;98004.66;15299432;19;20353;-83
2023/11/07 22:02:51;;;;;;;1.05;0.47;;;;;;;8.22;100.00;98005.84;15295788;19;20361;-83
2023/11/07 22:08:15;;;;;;;1.05;0.60;;;;;;;8.22;100.00;98009.34;15297459;19;20019;-83
2023/11/07 22:13:40;;;;;;;1.25;0.45;;;;;;;8.24;100.00;98020.78;15297036;19;20110;-86
2023/11/07 22:19:07;;;;;;;0.80;0.43;;;;;;;8.25;100.00;98026.97;15297909;19;20014;-84
2023/11/07 22:24:33;;;;;;;1.20;0.40;;;;;;;8.28;100.00;98029.34;15289501;19;20014;-83
2023/11/07 22:30:02;;;;;;;0.50;0.30;;;;;;;8.28;100.00;98024.84;15295203;19;20931;-85
2023/11/07 22:35:40;;;;;;;0.77;0.43;;;;;;;8.17;100.00;98035.81;15343970;19;20010;-86
2023/11/07 22:41:08;;;;;;;2.83;0.52;;;;;;;8.09;100.00;98041.09;15330252;19;20459;-83
2023/11/07 22:46:39;;;;;;;1.15;0.75;;;;;;;8.01;100.00;98042.72;15302465;19;20011;-82
2023/11/07 22:52:04;;;;;;;1.60;0.70;;;;;;;7.98;100.00;98043.03;15301618;19;20097;-82
2023/11/07 22:57:33;;;;;;;1.05;0.60;;;;;;;8.04;100.00;98043.41;15290416;19;20046;-83
2023/11/07 23:03:02;;;;;;;1.08;0.80;;;;;;;8.05;100.00;98042.41;15289525;19;20037;-82
2023/11/07 23:08:28;;;;;;;1.65;0.88;;;;;;;8.10;100.00;98042.78;15291644;19;20010;-83
2023/11/07 23:13:57;;;;;;;1.35;0.68;;;;;;;8.08;100.00;98047.47;15284527;19;20021;-82
2023/11/07 23:19:23;;;;;;;1.25;0.50;;;;;;;8.04;100.00;98038.06;15293686;19;20014;-83
2023/11/07 23:30:24;;;;;;;0.95;0.50;;;;;;;7.85;100.00;98043.41;15298175;19;20037;-84
2023/11/07 23:35:48;;;;;;;0.45;0.45;;;;;;;7.72;100.00;98046.47;15291096;19;20014;-82
2023/11/07 23:41:14;;;;;;;0.95;0.65;;;;;;;7.63;100.00;98039.34;15293538;19;20062;-84
2023/11/07 23:46:49;;;;;;;0.60;0.50;;;;;;;7.59;100.00;98032.59;15287779;19;20025;-83
2023/11/07 23:52:15;;;;;;;2.03;0.50;;;;;;;7.56;100.00;98030.22;15291809;19;20060;-83
2023/11/07 23:57:39;;;;;;;1.05;0.55;;;;;;;7.51;100.00;98029.84;15289791;19;20010;-83
